sensor_id;sensor_type;location;lat;lon;timestamp;P1;durP1;ratioP1;P2;durP2;ratioP2
42296;SDS011;28985;47.456;19.016;2022-09-25T00:00:54;28.05;;;26.92;;
42296;SDS011;28985;47.456;19.016;2022-09-25T00:03:23;28.90;;;27.80;;
42296;SDS011;28985;47.456;19.016;2022-09-25T00:05:51;29.67;;;28.67;;
42296;SDS011;28985;47.456;19.016;2022-09-25T00:08:19;31.35;;;30.05;;
42296;SDS011;28985;47.456;19.016;2022-09-25T00:10:47;31.13;;;29.95;;
42296;SDS011;28985;47.456;19.016;2022-09-25T00:13:16;31.25;;;30.05;;
42296;SDS011;28985;47.456;19.016;2022-09-25T00:15:47;34.03;;;32.45;;
42296;SDS011;28985;47.456;19.016;2022-09-25T00:18:19;32.80;;;31.65;;
42296;SDS011;28985;47.456;19.016;2022-09-25T00:21:05;33.72;;;32.60;;
42296;SDS011;28985;47.456;19.016;2022-09-25T00:23:33;37.33;;;36.03;;
42296;SDS011;28985;47.456;19.016;2022-09-25T00:26:00;38.40;;;37.05;;
42296;SDS011;28985;47.456;19.016;2022-09-25T00:28:27;40.65;;;39.15;;
42296;SDS011;28985;47.456;19.016;2022-09-25T00:30:55;41.78;;;40.22;;
42296;SDS011;28985;47.456;19.016;2022-09-25T00:33:22;47.38;;;45.45;;
42296;SDS011;28985;47.456;19.016;2022-09-25T00:35:49;47.13;;;44.65;;
42296;SDS011;28985;47.456;19.016;2022-09-25T00:38:15;48.20;;;46.45;;
42296;SDS011;28985;47.456;19.016;2022-09-25T00:40:42;47.67;;;45.97;;
42296;SDS011;28985;47.456;19.016;2022-09-25T00:43:31;48.15;;;46.42;;
42296;SDS011;28985;47.456;19.016;2022-09-25T00:46:00;48.45;;;46.70;;
42296;SDS011;28985;47.456;19.016;2022-09-25T00:48:29;52.30;;;50.42;;
42296;SDS011;28985;47.456;19.016;2022-09-25T00:50:56;53.22;;;51.05;;
42296;SDS011;28985;47.456;19.016;2022-09-25T00:53:29;50.03;;;48.22;;
42296;SDS011;28985;47.456;19.016;2022-09-25T00:56:00;49.50;;;47.72;;
42296;SDS011;28985;47.456;19.016;2022-09-25T00:58:28;50.60;;;48.75;;
42296;SDS011;28985;47.456;19.016;2022-09-25T01:00:58;50.20;;;48.30;;
42296;SDS011;28985;47.456;19.016;2022-09-25T01:03:25;50.10;;;48.28;;
42296;SDS011;28985;47.456;19.016;2022-09-25T01:05:53;49.40;;;47.20;;
42296;SDS011;28985;47.456;19.016;2022-09-25T01:08:22;50.53;;;48.53;;
42296;SDS011;28985;47.456;19.016;2022-09-25T01:10:50;49.85;;;48.05;;
42296;SDS011;28985;47.456;19.016;2022-09-25T01:13:17;50.88;;;49.05;;
42296;SDS011;28985;47.456;19.016;2022-09-25T01:15:50;49.28;;;47.47;;
42296;SDS011;28985;47.456;19.016;2022-09-25T01:18:31;47.78;;;46.00;;
42296;SDS011;28985;47.456;19.016;2022-09-25T01:35:00;45.42;;;43.80;;
42296;SDS011;28985;47.456;19.016;2022-09-25T01:37:39;46.08;;;44.08;;
42296;SDS011;28985;47.456;19.016;2022-09-25T01:43:00;44.65;;;43.10;;
42296;SDS011;28985;47.456;19.016;2022-09-25T01:48:06;44.42;;;42.78;;
42296;SDS011;28985;47.456;19.016;2022-09-25T01:51:20;45.22;;;43.63;;
42296;SDS011;28985;47.456;19.016;2022-09-25T01:53:35;46.00;;;43.78;;
42296;SDS011;28985;47.456;19.016;2022-09-25T01:56:18;44.83;;;43.17;;
42296;SDS011;28985;47.456;19.016;2022-09-25T01:59:14;44.22;;;42.65;;
42296;SDS011;28985;47.456;19.016;2022-09-25T02:01:48;43.45;;;41.97;;
42296;SDS011;28985;47.456;19.016;2022-09-25T02:04:22;44.65;;;42.95;;
42296;SDS011;28985;47.456;19.016;2022-09-25T02:06:55;45.15;;;43.58;;
42296;SDS011;28985;47.456;19.016;2022-09-25T02:09:33;46.13;;;44.42;;
42296;SDS011;28985;47.456;19.016;2022-09-25T02:12:14;45.20;;;43.60;;
42296;SDS011;28985;47.456;19.016;2022-09-25T02:14:46;44.42;;;42.83;;
42296;SDS011;28985;47.456;19.016;2022-09-25T02:17:17;44.15;;;42.13;;
42296;SDS011;28985;47.456;19.016;2022-09-25T02:20:07;43.15;;;41.60;;
42296;SDS011;28985;47.456;19.016;2022-09-25T02:22:53;42.90;;;41.20;;
42296;SDS011;28985;47.456;19.016;2022-09-25T02:25:35;42.75;;;41.25;;
42296;SDS011;28985;47.456;19.016;2022-09-25T02:28:05;43.35;;;41.78;;
42296;SDS011;28985;47.456;19.016;2022-09-25T02:30:32;44.95;;;42.95;;
42296;SDS011;28985;47.456;19.016;2022-09-25T02:32:59;42.60;;;41.08;;
42296;SDS011;28985;47.456;19.016;2022-09-25T02:35:26;45.85;;;44.25;;
42296;SDS011;28985;47.456;19.016;2022-09-25T02:37:53;42.78;;;41.30;;
42296;SDS011;28985;47.456;19.016;2022-09-25T02:40:25;42.75;;;41.25;;
42296;SDS011;28985;47.456;19.016;2022-09-25T02:45:38;43.55;;;41.95;;
42296;SDS011;28985;47.456;19.016;2022-09-25T02:54:04;43.88;;;42.33;;
42296;SDS011;28985;47.456;19.016;2022-09-25T02:56:36;44.55;;;42.97;;
42296;SDS011;28985;47.456;19.016;2022-09-25T02:59:10;45.17;;;43.37;;
42296;SDS011;28985;47.456;19.016;2022-09-25T03:01:44;45.47;;;43.90;;
42296;SDS011;28985;47.456;19.016;2022-09-25T03:04:13;47.10;;;45.40;;
42296;SDS011;28985;47.456;19.016;2022-09-25T03:06:42;46.50;;;44.83;;
42296;SDS011;28985;47.456;19.016;2022-09-25T03:09:10;46.55;;;44.85;;
42296;SDS011;28985;47.456;19.016;2022-09-25T03:11:40;46.67;;;44.70;;
42296;SDS011;28985;47.456;19.016;2022-09-25T03:14:09;47.83;;;46.15;;
42296;SDS011;28985;47.456;19.016;2022-09-25T03:16:41;48.75;;;47.05;;
42296;SDS011;28985;47.456;19.016;2022-09-25T03:19:12;49.13;;;47.22;;
42296;SDS011;28985;47.456;19.016;2022-09-25T03:21:39;50.53;;;48.65;;
42296;SDS011;28985;47.456;19.016;2022-09-25T03:24:05;51.70;;;49.88;;
42296;SDS011;28985;47.456;19.016;2022-09-25T03:26:32;52.83;;;50.97;;
42296;SDS011;28985;47.456;19.016;2022-09-25T03:28:59;52.25;;;50.40;;
42296;SDS011;28985;47.456;19.016;2022-09-25T03:31:28;54.95;;;52.97;;
42296;SDS011;28985;47.456;19.016;2022-09-25T03:33:55;59.42;;;57.33;;
42296;SDS011;28985;47.456;19.016;2022-09-25T03:36:23;64.35;;;62.03;;
42296;SDS011;28985;47.456;19.016;2022-09-25T03:38:52;68.88;;;66.43;;
42296;SDS011;28985;47.456;19.016;2022-09-25T03:41:25;69.30;;;66.80;;
42296;SDS011;28985;47.456;19.016;2022-09-25T03:43:55;66.95;;;64.55;;
42296;SDS011;28985;47.456;19.016;2022-09-25T03:46:23;61.78;;;59.60;;
42296;SDS011;28985;47.456;19.016;2022-09-25T03:48:58;60.20;;;58.03;;
42296;SDS011;28985;47.456;19.016;2022-09-25T03:51:26;61.38;;;59.17;;
42296;SDS011;28985;47.456;19.016;2022-09-25T03:53:54;65.93;;;63.42;;
42296;SDS011;28985;47.456;19.016;2022-09-25T03:56:22;69.93;;;67.35;;
42296;SDS011;28985;47.456;19.016;2022-09-25T03:58:50;75.38;;;72.60;;
42296;SDS011;28985;47.456;19.016;2022-09-25T04:01:21;85.63;;;82.57;;
42296;SDS011;28985;47.456;19.016;2022-09-25T04:03:49;86.22;;;83.10;;
42296;SDS011;28985;47.456;19.016;2022-09-25T04:06:17;88.53;;;85.38;;
42296;SDS011;28985;47.456;19.016;2022-09-25T04:08:46;94.20;;;90.72;;
42296;SDS011;28985;47.456;19.016;2022-09-25T04:11:14;97.65;;;94.13;;
42296;SDS011;28985;47.456;19.016;2022-09-25T04:13:41;104.80;;;101.03;;
42296;SDS011;28985;47.456;19.016;2022-09-25T04:16:10;103.47;;;99.72;;
42296;SDS011;28985;47.456;19.016;2022-09-25T04:18:38;113.53;;;109.22;;
42296;SDS011;28985;47.456;19.016;2022-09-25T04:21:09;120.50;;;115.93;;
42296;SDS011;28985;47.456;19.016;2022-09-25T04:23:37;128.05;;;123.32;;
42296;SDS011;28985;47.456;19.016;2022-09-25T04:26:04;144.30;;;139.00;;
42296;SDS011;28985;47.456;19.016;2022-09-25T04:28:32;154.93;;;149.15;;
42296;SDS011;28985;47.456;19.016;2022-09-25T04:30:59;145.27;;;139.98;;
42296;SDS011;28985;47.456;19.016;2022-09-25T04:33:26;128.25;;;123.50;;
42296;SDS011;28985;47.456;19.016;2022-09-25T04:36:11;125.43;;;120.88;;
42296;SDS011;28985;47.456;19.016;2022-09-25T04:38:37;132.65;;;127.75;;
42296;SDS011;28985;47.456;19.016;2022-09-25T04:41:04;124.65;;;119.95;;
42296;SDS011;28985;47.456;19.016;2022-09-25T04:43:31;116.88;;;112.60;;
42296;SDS011;28985;47.456;19.016;2022-09-25T04:46:08;121.78;;;117.30;;
42296;SDS011;28985;47.456;19.016;2022-09-25T04:48:44;121.18;;;116.70;;
42296;SDS011;28985;47.456;19.016;2022-09-25T04:51:13;126.20;;;121.30;;
42296;SDS011;28985;47.456;19.016;2022-09-25T04:53:39;129.35;;;124.47;;
42296;SDS011;28985;47.456;19.016;2022-09-25T04:56:08;131.75;;;126.85;;
42296;SDS011;28985;47.456;19.016;2022-09-25T04:58:44;130.13;;;125.28;;
42296;SDS011;28985;47.456;19.016;2022-09-25T05:01:14;132.40;;;127.40;;
42296;SDS011;28985;47.456;19.016;2022-09-25T05:03:41;136.38;;;131.32;;
42296;SDS011;28985;47.456;19.016;2022-09-25T05:06:08;133.07;;;128.18;;
42296;SDS011;28985;47.456;19.016;2022-09-25T05:08:35;139.60;;;134.50;;
42296;SDS011;28985;47.456;19.016;2022-09-25T05:11:01;152.45;;;146.85;;
42296;SDS011;28985;47.456;19.016;2022-09-25T05:13:29;158.00;;;152.15;;
42296;SDS011;28985;47.456;19.016;2022-09-25T05:15:55;162.02;;;156.07;;
42296;SDS011;28985;47.456;19.016;2022-09-25T05:18:22;177.07;;;170.55;;
42296;SDS011;28985;47.456;19.016;2022-09-25T05:20:49;190.15;;;182.93;;
42296;SDS011;28985;47.456;19.016;2022-09-25T05:23:18;187.48;;;180.40;;
42296;SDS011;28985;47.456;19.016;2022-09-25T05:25:55;179.00;;;172.25;;
42296;SDS011;28985;47.456;19.016;2022-09-25T05:28:28;173.05;;;166.68;;
42296;SDS011;28985;47.456;19.016;2022-09-25T05:30:58;178.57;;;172.00;;
42296;SDS011;28985;47.456;19.016;2022-09-25T05:33:32;174.47;;;168.03;;
42296;SDS011;28985;47.456;19.016;2022-09-25T05:36:01;163.70;;;157.65;;
42296;SDS011;28985;47.456;19.016;2022-09-25T05:38:30;160.48;;;154.52;;
42296;SDS011;28985;47.456;19.016;2022-09-25T05:41:00;160.80;;;154.85;;
42296;SDS011;28985;47.456;19.016;2022-09-25T05:43:31;168.80;;;162.55;;
42296;SDS011;28985;47.456;19.016;2022-09-25T05:45:59;179.40;;;172.73;;
42296;SDS011;28985;47.456;19.016;2022-09-25T05:48:26;194.27;;;187.10;;
42296;SDS011;28985;47.456;19.016;2022-09-25T05:50:53;196.75;;;189.52;;
42296;SDS011;28985;47.456;19.016;2022-09-25T05:53:20;198.10;;;190.82;;
42296;SDS011;28985;47.456;19.016;2022-09-25T05:55:50;197.50;;;190.00;;
42296;SDS011;28985;47.456;19.016;2022-09-25T05:58:23;187.05;;;180.13;;
42296;SDS011;28985;47.456;19.016;2022-09-25T06:00:51;177.68;;;171.05;;
42296;SDS011;28985;47.456;19.016;2022-09-25T06:03:19;166.02;;;159.77;;
42296;SDS011;28985;47.456;19.016;2022-09-25T06:05:46;153.25;;;147.48;;
42296;SDS011;28985;47.456;19.016;2022-09-25T06:08:14;150.77;;;145.18;;
42296;SDS011;28985;47.456;19.016;2022-09-25T06:10:40;144.15;;;138.85;;
42296;SDS011;28985;47.456;19.016;2022-09-25T06:13:07;133.98;;;128.98;;
42296;SDS011;28985;47.456;19.016;2022-09-25T06:15:35;126.18;;;121.55;;
42296;SDS011;28985;47.456;19.016;2022-09-25T06:18:03;120.60;;;116.18;;
42296;SDS011;28985;47.456;19.016;2022-09-25T06:20:30;110.13;;;106.03;;
42296;SDS011;28985;47.456;19.016;2022-09-25T06:22:57;98.47;;;94.85;;
42296;SDS011;28985;47.456;19.016;2022-09-25T06:25:26;85.97;;;82.88;;
42296;SDS011;28985;47.456;19.016;2022-09-25T06:27:56;78.00;;;75.20;;
42296;SDS011;28985;47.456;19.016;2022-09-25T06:30:26;71.35;;;68.85;;
42296;SDS011;28985;47.456;19.016;2022-09-25T06:33:00;65.10;;;62.60;;
42296;SDS011;28985;47.456;19.016;2022-09-25T06:35:32;62.45;;;60.15;;
42296;SDS011;28985;47.456;19.016;2022-09-25T06:38:00;55.95;;;53.75;;
42296;SDS011;28985;47.456;19.016;2022-09-25T06:40:28;51.72;;;49.75;;
42296;SDS011;28985;47.456;19.016;2022-09-25T06:42:57;45.17;;;43.53;;
42296;SDS011;28985;47.456;19.016;2022-09-25T06:45:24;43.47;;;41.88;;
42296;SDS011;28985;47.456;19.016;2022-09-25T06:47:53;40.97;;;39.53;;
42296;SDS011;28985;47.456;19.016;2022-09-25T06:50:23;42.85;;;41.28;;
42296;SDS011;28985;47.456;19.016;2022-09-25T06:52:57;44.07;;;42.47;;
42296;SDS011;28985;47.456;19.016;2022-09-25T06:55:27;40.15;;;38.65;;
42296;SDS011;28985;47.456;19.016;2022-09-25T06:57:55;36.38;;;34.97;;
42296;SDS011;28985;47.456;19.016;2022-09-25T07:00:21;36.65;;;35.25;;
42296;SDS011;28985;47.456;19.016;2022-09-25T07:02:48;36.90;;;35.60;;
42296;SDS011;28985;47.456;19.016;2022-09-25T07:05:33;36.63;;;35.15;;
42296;SDS011;28985;47.456;19.016;2022-09-25T07:08:00;37.78;;;36.40;;
42296;SDS011;28985;47.456;19.016;2022-09-25T07:10:26;38.35;;;37.03;;
42296;SDS011;28985;47.456;19.016;2022-09-25T07:12:53;36.08;;;34.85;;
42296;SDS011;28985;47.456;19.016;2022-09-25T07:15:20;38.38;;;36.97;;
42296;SDS011;28985;47.456;19.016;2022-09-25T07:17:47;38.67;;;37.00;;
42296;SDS011;28985;47.456;19.016;2022-09-25T07:20:14;38.63;;;37.22;;
42296;SDS011;28985;47.456;19.016;2022-09-25T07:22:41;39.38;;;37.95;;
42296;SDS011;28985;47.456;19.016;2022-09-25T07:25:08;37.63;;;36.03;;
42296;SDS011;28985;47.456;19.016;2022-09-25T07:27:36;37.25;;;35.95;;
42296;SDS011;28985;47.456;19.016;2022-09-25T07:30:03;39.70;;;38.20;;
42296;SDS011;28985;47.456;19.016;2022-09-25T07:32:31;46.08;;;44.28;;
42296;SDS011;28985;47.456;19.016;2022-09-25T07:34:57;47.70;;;45.90;;
42296;SDS011;28985;47.456;19.016;2022-09-25T07:37:24;52.35;;;50.53;;
42296;SDS011;28985;47.456;19.016;2022-09-25T07:39:50;52.70;;;50.78;;
42296;SDS011;28985;47.456;19.016;2022-09-25T07:42:17;55.50;;;53.50;;
42296;SDS011;28985;47.456;19.016;2022-09-25T07:44:44;59.03;;;56.78;;
42296;SDS011;28985;47.456;19.016;2022-09-25T07:47:13;71.30;;;68.65;;
42296;SDS011;28985;47.456;19.016;2022-09-25T07:49:40;56.13;;;54.08;;
42296;SDS011;28985;47.456;19.016;2022-09-25T07:52:07;53.95;;;51.90;;
42296;SDS011;28985;47.456;19.016;2022-09-25T07:54:33;33.83;;;32.35;;
42296;SDS011;28985;47.456;19.016;2022-09-25T07:57:01;40.53;;;39.03;;
42296;SDS011;28985;47.456;19.016;2022-09-25T07:59:27;40.28;;;38.83;;
42296;SDS011;28985;47.456;19.016;2022-09-25T08:01:54;63.65;;;61.00;;
42296;SDS011;28985;47.456;19.016;2022-09-25T08:04:20;37.13;;;35.75;;
42296;SDS011;28985;47.456;19.016;2022-09-25T08:06:47;79.00;;;76.18;;
42296;SDS011;28985;47.456;19.016;2022-09-25T08:09:13;91.57;;;88.28;;
42296;SDS011;28985;47.456;19.016;2022-09-25T08:11:40;85.97;;;82.90;;
42296;SDS011;28985;47.456;19.016;2022-09-25T08:14:06;80.18;;;77.25;;
42296;SDS011;28985;47.456;19.016;2022-09-25T08:16:33;69.55;;;67.03;;
42296;SDS011;28985;47.456;19.016;2022-09-25T08:19:00;63.72;;;61.22;;
42296;SDS011;28985;47.456;19.016;2022-09-25T08:21:26;48.10;;;46.42;;
42296;SDS011;28985;47.456;19.016;2022-09-25T08:23:53;42.38;;;40.53;;
42296;SDS011;28985;47.456;19.016;2022-09-25T08:26:21;44.92;;;43.33;;
42296;SDS011;28985;47.456;19.016;2022-09-25T08:28:48;45.65;;;44.05;;
42296;SDS011;28985;47.456;19.016;2022-09-25T08:31:16;47.40;;;45.80;;
42296;SDS011;28985;47.456;19.016;2022-09-25T08:33:46;51.00;;;49.20;;
42296;SDS011;28985;47.456;19.016;2022-09-25T08:36:14;53.58;;;51.67;;
42296;SDS011;28985;47.456;19.016;2022-09-25T08:38:42;46.78;;;45.17;;
42296;SDS011;28985;47.456;19.016;2022-09-25T08:41:11;49.50;;;47.70;;
42296;SDS011;28985;47.456;19.016;2022-09-25T08:43:49;54.95;;;53.05;;
42296;SDS011;28985;47.456;19.016;2022-09-25T08:46:37;65.38;;;62.97;;
42296;SDS011;28985;47.456;19.016;2022-09-25T08:49:35;74.40;;;71.55;;
42296;SDS011;28985;47.456;19.016;2022-09-25T08:54:38;84.68;;;81.65;;
42296;SDS011;28985;47.456;19.016;2022-09-25T08:59:47;114.63;;;110.47;;
42296;SDS011;28985;47.456;19.016;2022-09-25T09:05:13;114.75;;;110.60;;
42296;SDS011;28985;47.456;19.016;2022-09-25T09:07:46;110.65;;;106.68;;
42296;SDS011;28985;47.456;19.016;2022-09-25T09:15:51;77.47;;;74.70;;
42296;SDS011;28985;47.456;19.016;2022-09-25T09:18:29;67.20;;;64.40;;
42296;SDS011;28985;47.456;19.016;2022-09-25T09:21:03;81.40;;;78.30;;
42296;SDS011;28985;47.456;19.016;2022-09-25T09:37:39;59.08;;;57.00;;
42296;SDS011;28985;47.456;19.016;2022-09-25T09:40:25;50.70;;;48.90;;
42296;SDS011;28985;47.456;19.016;2022-09-25T09:45:58;45.72;;;43.88;;
42296;SDS011;28985;47.456;19.016;2022-09-25T09:48:38;46.55;;;44.95;;
42296;SDS011;28985;47.456;19.016;2022-09-25T09:51:12;48.08;;;46.22;;
42296;SDS011;28985;47.456;19.016;2022-09-25T09:53:50;45.65;;;44.08;;
42296;SDS011;28985;47.456;19.016;2022-09-25T09:56:24;48.45;;;46.78;;
42296;SDS011;28985;47.456;19.016;2022-09-25T09:58:54;47.17;;;45.55;;
42296;SDS011;28985;47.456;19.016;2022-09-25T10:01:25;40.58;;;39.13;;
42296;SDS011;28985;47.456;19.016;2022-09-25T10:04:16;41.75;;;40.35;;
42296;SDS011;28985;47.456;19.016;2022-09-25T10:06:54;50.78;;;49.00;;
42296;SDS011;28985;47.456;19.016;2022-09-25T10:09:26;59.80;;;57.67;;
42296;SDS011;28985;47.456;19.016;2022-09-25T10:12:00;67.03;;;64.63;;
42296;SDS011;28985;47.456;19.016;2022-09-25T10:14:38;84.45;;;81.45;;
42296;SDS011;28985;47.456;19.016;2022-09-25T10:17:09;106.15;;;102.13;;
42296;SDS011;28985;47.456;19.016;2022-09-25T10:19:47;141.93;;;136.73;;
42296;SDS011;28985;47.456;19.016;2022-09-25T10:22:20;147.05;;;141.68;;
42296;SDS011;28985;47.456;19.016;2022-09-25T10:24:52;177.82;;;171.30;;
42296;SDS011;28985;47.456;19.016;2022-09-25T10:32:51;186.32;;;179.50;;
42296;SDS011;28985;47.456;19.016;2022-09-25T10:35:24;196.13;;;189.00;;
42296;SDS011;28985;47.456;19.016;2022-09-25T10:37:54;205.73;;;198.23;;
42296;SDS011;28985;47.456;19.016;2022-09-25T10:40:24;212.13;;;204.38;;
42296;SDS011;28985;47.456;19.016;2022-09-25T10:43:03;214.35;;;206.50;;
42296;SDS011;28985;47.456;19.016;2022-09-25T10:45:46;205.00;;;197.48;;
42296;SDS011;28985;47.456;19.016;2022-09-25T10:48:29;199.40;;;192.13;;
42296;SDS011;28985;47.456;19.016;2022-09-25T10:51:17;189.35;;;182.45;;
42296;SDS011;28985;47.456;19.016;2022-09-25T10:53:50;195.20;;;188.05;;
42296;SDS011;28985;47.456;19.016;2022-09-25T10:56:19;193.30;;;186.02;;
42296;SDS011;28985;47.456;19.016;2022-09-25T10:58:50;206.38;;;198.82;;
42296;SDS011;28985;47.456;19.016;2022-09-25T11:01:20;214.68;;;206.82;;
42296;SDS011;28985;47.456;19.016;2022-09-25T11:03:57;227.70;;;219.40;;
42296;SDS011;28985;47.456;19.016;2022-09-25T11:06:25;211.15;;;203.45;;
42296;SDS011;28985;47.456;19.016;2022-09-25T11:11:27;230.98;;;222.48;;
42296;SDS011;28985;47.456;19.016;2022-09-25T11:13:55;226.07;;;217.80;;
42296;SDS011;28985;47.456;19.016;2022-09-25T11:19:34;227.52;;;219.18;;
42296;SDS011;28985;47.456;19.016;2022-09-25T11:27:03;242.27;;;233.38;;
42296;SDS011;28985;47.456;19.016;2022-09-25T11:29:42;231.55;;;222.82;;
42296;SDS011;28985;47.456;19.016;2022-09-25T11:32:26;220.15;;;212.10;;
42296;SDS011;28985;47.456;19.016;2022-09-25T11:46:34;197.00;;;189.77;;
42296;SDS011;28985;47.456;19.016;2022-09-25T11:49:07;200.87;;;193.50;;
42296;SDS011;28985;47.456;19.016;2022-09-25T11:57:08;185.68;;;178.82;;
42296;SDS011;28985;47.456;19.016;2022-09-25T12:02:48;178.07;;;171.40;;
42296;SDS011;28985;47.456;19.016;2022-09-25T12:05:17;167.73;;;161.55;;
42296;SDS011;28985;47.456;19.016;2022-09-25T12:17:19;140.45;;;135.30;;
42296;SDS011;28985;47.456;19.016;2022-09-25T12:19:57;148.52;;;143.10;;
42296;SDS011;28985;47.456;19.016;2022-09-25T12:28:05;159.38;;;153.55;;
42296;SDS011;28985;47.456;19.016;2022-09-25T12:33:47;198.63;;;191.32;;
42296;SDS011;28985;47.456;19.016;2022-09-25T12:36:21;171.35;;;165.05;;
42296;SDS011;28985;47.456;19.016;2022-09-25T12:38:55;173.87;;;167.50;;
42296;SDS011;28985;47.456;19.016;2022-09-25T12:41:33;164.95;;;158.90;;
42296;SDS011;28985;47.456;19.016;2022-09-25T12:44:10;163.82;;;157.88;;
42296;SDS011;28985;47.456;19.016;2022-09-25T12:46:48;165.45;;;159.35;;
42296;SDS011;28985;47.456;19.016;2022-09-25T12:49:29;172.73;;;166.43;;
42296;SDS011;28985;47.456;19.016;2022-09-25T12:52:06;191.57;;;184.48;;
42296;SDS011;28985;47.456;19.016;2022-09-25T12:57:11;167.48;;;161.32;;
42296;SDS011;28985;47.456;19.016;2022-09-25T12:59:48;235.07;;;226.05;;
42296;SDS011;28985;47.456;19.016;2022-09-25T13:02:25;221.30;;;212.98;;
42296;SDS011;28985;47.456;19.016;2022-09-25T13:10:47;226.23;;;217.75;;
42296;SDS011;28985;47.456;19.016;2022-09-25T13:13:19;253.27;;;243.53;;
42296;SDS011;28985;47.456;19.016;2022-09-25T13:15:55;250.95;;;241.50;;
42296;SDS011;28985;47.456;19.016;2022-09-25T13:18:25;232.52;;;223.85;;
42296;SDS011;28985;47.456;19.016;2022-09-25T13:20:55;221.35;;;213.18;;
42296;SDS011;28985;47.456;19.016;2022-09-25T13:25:59;202.35;;;194.85;;
42296;SDS011;28985;47.456;19.016;2022-09-25T13:29:13;214.95;;;206.93;;
42296;SDS011;28985;47.456;19.016;2022-09-25T13:31:45;160.52;;;154.70;;
42296;SDS011;28985;47.456;19.016;2022-09-25T13:34:13;157.35;;;151.55;;
42296;SDS011;28985;47.456;19.016;2022-09-25T13:36:47;147.93;;;142.52;;
42296;SDS011;28985;47.456;19.016;2022-09-25T13:42:14;139.75;;;134.68;;
42296;SDS011;28985;47.456;19.016;2022-09-25T13:44:55;130.38;;;125.65;;
42296;SDS011;28985;47.456;19.016;2022-09-25T13:47:43;131.63;;;126.82;;
42296;SDS011;28985;47.456;19.016;2022-09-25T13:50:36;130.15;;;125.45;;
42296;SDS011;28985;47.456;19.016;2022-09-25T14:06:25;128.82;;;124.13;;
42296;SDS011;28985;47.456;19.016;2022-09-25T14:09:14;129.10;;;124.32;;
42296;SDS011;28985;47.456;19.016;2022-09-25T14:11:49;125.70;;;121.05;;
42296;SDS011;28985;47.456;19.016;2022-09-25T14:14:26;121.93;;;117.40;;
42296;SDS011;28985;47.456;19.016;2022-09-25T14:16:58;131.23;;;126.45;;
42296;SDS011;28985;47.456;19.016;2022-09-25T14:19:26;120.38;;;116.00;;
42296;SDS011;28985;47.456;19.016;2022-09-25T14:21:56;123.32;;;118.88;;
42296;SDS011;28985;47.456;19.016;2022-09-25T14:24:26;118.40;;;113.15;;
42296;SDS011;28985;47.456;19.016;2022-09-25T14:26:55;118.43;;;114.13;;
42296;SDS011;28985;47.456;19.016;2022-09-25T14:29:24;110.85;;;106.78;;
42296;SDS011;28985;47.456;19.016;2022-09-25T14:35:32;109.45;;;105.43;;
42296;SDS011;28985;47.456;19.016;2022-09-25T14:40:53;111.75;;;107.70;;
42296;SDS011;28985;47.456;19.016;2022-09-25T14:46:13;115.22;;;110.95;;
42296;SDS011;28985;47.456;19.016;2022-09-25T14:51:40;110.63;;;106.57;;
42296;SDS011;28985;47.456;19.016;2022-09-25T14:54:13;107.47;;;103.13;;
42296;SDS011;28985;47.456;19.016;2022-09-25T14:56:43;109.05;;;105.05;;
42296;SDS011;28985;47.456;19.016;2022-09-25T14:59:17;103.95;;;100.18;;
42296;SDS011;28985;47.456;19.016;2022-09-25T15:01:50;108.53;;;104.60;;
42296;SDS011;28985;47.456;19.016;2022-09-25T15:04:28;111.00;;;106.95;;
42296;SDS011;28985;47.456;19.016;2022-09-25T15:09:39;126.57;;;121.95;;
42296;SDS011;28985;47.456;19.016;2022-09-25T15:12:22;116.25;;;111.97;;
42296;SDS011;28985;47.456;19.016;2022-09-25T15:15:10;121.22;;;116.70;;
42296;SDS011;28985;47.456;19.016;2022-09-25T15:17:47;134.05;;;129.15;;
42296;SDS011;28985;47.456;19.016;2022-09-25T15:20:21;120.90;;;116.53;;
42296;SDS011;28985;47.456;19.016;2022-09-25T15:22:57;120.82;;;116.38;;
42296;SDS011;28985;47.456;19.016;2022-09-25T15:25:31;121.18;;;116.72;;
42296;SDS011;28985;47.456;19.016;2022-09-25T15:28:01;125.40;;;120.82;;
42296;SDS011;28985;47.456;19.016;2022-09-25T15:30:31;108.45;;;104.53;;
42296;SDS011;28985;47.456;19.016;2022-09-25T15:33:01;119.40;;;115.05;;
42296;SDS011;28985;47.456;19.016;2022-09-25T15:35:28;118.22;;;113.82;;
42296;SDS011;28985;47.456;19.016;2022-09-25T15:38:13;121.20;;;116.78;;
42296;SDS011;28985;47.456;19.016;2022-09-25T15:40:39;114.30;;;110.13;;
42296;SDS011;28985;47.456;19.016;2022-09-25T15:43:11;124.65;;;119.95;;
42296;SDS011;28985;47.456;19.016;2022-09-25T15:45:57;140.50;;;135.13;;
42296;SDS011;28985;47.456;19.016;2022-09-25T15:48:53;107.65;;;103.68;;
42296;SDS011;28985;47.456;19.016;2022-09-25T15:51:24;116.60;;;112.35;;
42296;SDS011;28985;47.456;19.016;2022-09-25T15:53:56;118.05;;;113.75;;
42296;SDS011;28985;47.456;19.016;2022-09-25T15:56:26;112.70;;;108.47;;
42296;SDS011;28985;47.456;19.016;2022-09-25T15:59:17;118.60;;;114.15;;
42296;SDS011;28985;47.456;19.016;2022-09-25T16:01:45;116.82;;;112.57;;
42296;SDS011;28985;47.456;19.016;2022-09-25T16:04:32;121.70;;;117.30;;
42296;SDS011;28985;47.456;19.016;2022-09-25T16:09:49;118.47;;;114.15;;
42296;SDS011;28985;47.456;19.016;2022-09-25T16:12:32;121.75;;;117.32;;
42296;SDS011;28985;47.456;19.016;2022-09-25T16:17:52;138.68;;;133.65;;
42296;SDS011;28985;47.456;19.016;2022-09-25T16:22:51;134.07;;;129.20;;
42296;SDS011;28985;47.456;19.016;2022-09-25T16:25:25;125.55;;;120.97;;
42296;SDS011;28985;47.456;19.016;2022-09-25T16:30:32;139.38;;;134.30;;
42296;SDS011;28985;47.456;19.016;2022-09-25T16:33:03;145.63;;;140.32;;
42296;SDS011;28985;47.456;19.016;2022-09-25T16:35:34;151.80;;;146.27;;
42296;SDS011;28985;47.456;19.016;2022-09-25T16:38:27;148.20;;;142.80;;
42296;SDS011;28985;47.456;19.016;2022-09-25T16:41:05;163.02;;;157.10;;
42296;SDS011;28985;47.456;19.016;2022-09-25T16:43:33;156.32;;;150.52;;
42296;SDS011;28985;47.456;19.016;2022-09-25T16:46:14;149.85;;;144.35;;
42296;SDS011;28985;47.456;19.016;2022-09-25T16:48:44;148.35;;;142.95;;
42296;SDS011;28985;47.456;19.016;2022-09-25T16:51:22;151.32;;;145.80;;
42296;SDS011;28985;47.456;19.016;2022-09-25T16:53:54;160.45;;;154.55;;
42296;SDS011;28985;47.456;19.016;2022-09-25T16:56:24;160.63;;;154.70;;
42296;SDS011;28985;47.456;19.016;2022-09-25T16:58:53;155.38;;;149.68;;
42296;SDS011;28985;47.456;19.016;2022-09-25T17:01:19;166.77;;;160.60;;
42296;SDS011;28985;47.456;19.016;2022-09-25T17:03:48;164.98;;;158.52;;
42296;SDS011;28985;47.456;19.016;2022-09-25T17:06:16;163.45;;;157.45;;
42296;SDS011;28985;47.456;19.016;2022-09-25T17:08:44;172.20;;;165.80;;